Time;durP1;ratioP1;P1;durP2;ratioP2;P2;SDS_P1;SDS_P2;PMS_P1;PMS_P2;Temp;Humidity;BMP_temperature;BMP_pressure;BME280_temperature;BME280_humidity;BME280_pressure;Samples;Min_cycle;Max_cycle;Signal;HPM_P1;HPM_P2
2021/12/12 00:00:13;;;;;;;7.50;6.03;;;;;;;2.79;100.00;152081.44;5038185;28;20438;-76
2021/12/12 00:02:56;;;;;;;7.17;5.50;;;;;;;2.80;100.00;152084.03;5063541;28;20814;-76
2021/12/12 00:05:36;;;;;;;7.00;6.13;;;;;;;2.81;100.00;152086.56;5087201;28;20430;-75
2021/12/12 00:08:15;;;;;;;7.47;5.57;;;;;;;2.82;100.00;152090.44;5041578;28;20442;-76
2021/12/12 00:10:53;;;;;;;6.77;5.50;;;;;;;2.84;100.00;152094.28;5054599;28;21023;-75
2021/12/12 00:13:32;;;;;;;6.57;5.30;;;;;;;2.82;100.00;152089.16;5086816;28;20840;-75
2021/12/12 00:16:08;;;;;;;6.90;5.80;;;;;;;2.83;100.00;152091.75;5055638;28;20446;-76
2021/12/12 00:18:45;;;;;;;5.93;5.30;;;;;;;2.83;100.00;152091.75;5097328;28;20875;-75
2021/12/12 00:21:23;;;;;;;6.30;5.70;;;;;;;2.81;100.00;152086.56;5066533;28;20445;-75
2021/12/12 00:23:59;;;;;;;8.27;5.43;;;;;;;2.82;100.00;152089.16;5055822;28;20440;-76
2021/12/12 00:26:35;;;;;;;5.93;5.37;;;;;;;2.83;100.00;152091.75;5054325;28;20437;-76
2021/12/12 00:29:12;;;;;;;6.23;5.23;;;;;;;2.83;100.00;152091.75;5050650;28;20445;-76
2021/12/12 00:31:49;;;;;;;6.10;5.50;;;;;;;2.82;100.00;152089.16;5086152;28;20469;-75
2021/12/12 00:34:27;;;;;;;5.93;5.27;;;;;;;2.81;100.00;152086.56;5054617;28;20460;-75
2021/12/12 00:37:04;;;;;;;6.90;5.37;;;;;;;2.81;100.00;152086.56;5057154;28;20436;-76
2021/12/12 00:39:41;;;;;;;7.30;5.27;;;;;;;2.81;100.00;152087.84;5066509;28;20568;-76
2021/12/12 00:42:19;;;;;;;7.03;5.40;;;;;;;2.83;100.00;152091.75;5067944;28;20468;-75
2021/12/12 00:44:58;;;;;;;8.07;5.87;;;;;;;2.83;100.00;152091.75;5037736;28;20437;-75
2021/12/12 00:47:33;;;;;;;6.77;6.07;;;;;;;2.81;100.00;152086.56;5061422;28;20452;-75
2021/12/12 00:50:14;;;;;;;8.50;6.30;;;;;;;2.82;100.00;152089.16;5056353;28;20449;-76
2021/12/12 00:52:50;;;;;;;8.40;6.33;;;;;;;2.82;100.00;152090.44;5062221;28;20874;-75
2021/12/12 00:55:26;;;;;;;7.33;6.37;;;;;;;2.83;100.00;152091.75;5067871;28;20794;-75
2021/12/12 00:58:01;;;;;;;6.80;6.10;;;;;;;2.81;100.00;152086.56;5067662;28;20449;-76
2021/12/12 01:00:43;;;;;;;7.50;6.00;;;;;;;2.80;100.00;152085.31;5042339;28;20440;-76
2021/12/12 01:03:20;;;;;;;6.50;5.53;;;;;;;2.81;100.00;152086.56;5053685;28;20431;-76
2021/12/12 01:05:59;;;;;;;7.00;5.93;;;;;;;2.81;100.00;152086.56;5070652;28;20532;-76
2021/12/12 01:08:36;;;;;;;8.30;5.77;;;;;;;2.82;100.00;152089.16;5061014;28;20441;-76
2021/12/12 01:11:15;;;;;;;7.03;5.73;;;;;;;2.80;100.00;152084.03;5072516;28;20445;-75
2021/12/12 01:13:52;;;;;;;6.20;5.30;;;;;;;2.82;100.00;152089.16;5072146;28;20861;-76
2021/12/12 01:16:33;;;;;;;8.73;6.50;;;;;;;2.83;100.00;152091.75;5049858;28;20469;-75
2021/12/12 01:19:14;;;;;;;8.17;6.03;;;;;;;2.83;100.00;152093.00;5052240;28;20497;-75
2021/12/12 01:21:54;;;;;;;6.97;6.00;;;;;;;2.81;100.00;152086.56;5051988;28;20527;-75
2021/12/12 01:24:33;;;;;;;6.87;5.60;;;;;;;2.83;100.00;152091.75;5052436;28;20435;-75
2021/12/12 01:27:09;;;;;;;8.23;5.60;;;;;;;2.85;100.00;152096.88;5052191;28;20441;-76
2021/12/12 01:29:46;;;;;;;8.23;6.83;;;;;;;2.84;100.00;152095.59;5051965;28;20456;-76
2021/12/12 01:32:27;;;;;;;7.47;6.03;;;;;;;2.82;100.00;152089.16;5038957;28;20537;-75
2021/12/12 01:35:02;;;;;;;7.17;5.87;;;;;;;2.83;100.00;152093.00;5056355;28;20437;-75
2021/12/12 01:37:49;;;;;;;6.10;5.27;;;;;;;2.82;100.00;152090.44;5104866;28;20444;-76
2021/12/12 01:40:26;;;;;;;7.57;6.70;;;;;;;2.81;100.00;152086.56;5096489;28;20509;-75
2021/12/12 01:43:06;;;;;;;6.93;6.23;;;;;;;2.81;100.00;152087.84;5067825;28;20446;-75
2021/12/12 01:45:45;;;;;;;7.47;5.77;;;;;;;2.83;100.00;152091.75;5044995;28;20486;-75
2021/12/12 01:48:25;;;;;;;6.30;5.60;;;;;;;2.82;100.00;152090.44;5070679;28;20444;-75
2021/12/12 01:51:04;;;;;;;8.77;7.10;;;;;;;2.82;100.00;152089.16;5093931;28;20454;-76
2021/12/12 01:53:42;;;;;;;8.57;5.90;;;;;;;2.81;100.00;152086.56;5085189;28;20482;-76
2021/12/12 01:56:21;;;;;;;8.87;6.60;;;;;;;2.82;100.00;152089.16;5052942;28;20452;-75
2021/12/12 01:59:01;;;;;;;8.03;6.70;;;;;;;2.82;100.00;152089.16;5047640;28;20476;-76
2021/12/12 02:01:39;;;;;;;7.70;5.83;;;;;;;2.82;100.00;152089.16;5036322;28;20449;-75
2021/12/12 02:04:19;;;;;;;6.80;6.10;;;;;;;2.83;100.00;152091.75;5035684;28;20450;-76
2021/12/12 02:06:55;;;;;;;8.53;6.87;;;;;;;2.83;100.00;152093.00;5051734;28;20481;-75
2021/12/12 02:09:33;;;;;;;7.90;6.87;;;;;;;2.84;100.00;152094.28;5064613;28;20454;-75
2021/12/12 02:12:10;;;;;;;8.07;6.47;;;;;;;2.80;100.00;152084.03;5058248;28;20555;-75
2021/12/12 02:14:47;;;;;;;9.50;7.20;;;;;;;2.82;100.00;152089.16;5069242;28;20848;-76
2021/12/12 02:17:31;;;;;;;8.73;6.70;;;;;;;2.82;100.00;152089.16;5077394;28;20524;-75
2021/12/12 02:20:16;;;;;;;6.87;5.83;;;;;;;2.81;100.00;152086.56;5051355;28;20475;-76
2021/12/12 02:23:05;;;;;;;11.87;7.20;;;;;;;2.80;100.00;152084.03;5072161;28;20794;-76
2021/12/12 02:37:19;;;;;;;8.73;6.50;;;;;;;2.80;100.00;152085.31;5079162;28;20825;-76
2021/12/12 02:39:57;;;;;;;8.43;6.93;;;;;;;2.81;100.00;152086.56;5065202;28;20465;-76
2021/12/12 02:42:33;;;;;;;7.10;6.37;;;;;;;2.77;100.00;152077.59;5052950;28;20813;-76
2021/12/12 02:45:12;;;;;;;7.47;5.73;;;;;;;2.74;100.00;152069.88;5049975;28;20454;-76
2021/12/12 02:47:54;;;;;;;5.87;5.27;;;;;;;2.77;100.00;152076.28;5085082;28;20437;-76
2021/12/12 02:50:33;;;;;;;5.50;4.67;;;;;;;2.72;100.00;152063.44;5050873;28;20444;-76
2021/12/12 02:53:14;;;;;;;6.23;4.60;;;;;;;2.71;100.00;152062.16;5070496;28;20502;-76
2021/12/12 02:55:56;;;;;;;7.23;4.90;;;;;;;2.70;100.00;152058.31;5067280;28;20835;-76
2021/12/12 02:58:32;;;;;;;5.83;4.30;;;;;;;2.72;100.00;152064.75;5050761;28;20465;-75
2021/12/12 03:01:11;;;;;;;5.87;4.73;;;;;;;2.72;100.00;152063.44;5066933;28;20444;-76
2021/12/12 03:03:48;;;;;;;6.50;4.73;;;;;;;2.70;100.00;152058.31;5049961;28;20864;-76
2021/12/12 03:06:28;;;;;;;5.93;4.80;;;;;;;2.72;100.00;152063.44;5064102;28;20445;-76
2021/12/12 03:09:11;;;;;;;8.57;5.30;;;;;;;2.73;100.00;152067.28;5052458;28;20457;-76
2021/12/12 03:11:50;;;;;;;5.70;4.87;;;;;;;2.72;100.00;152063.44;5067893;28;20945;-76
2021/12/12 03:14:32;;;;;;;7.40;5.47;;;;;;;2.68;100.00;152054.41;5058091;28;20447;-76
2021/12/12 03:17:11;;;;;;;7.20;5.07;;;;;;;2.68;100.00;152053.13;5045943;28;20453;-76
2021/12/12 03:19:47;;;;;;;6.77;5.07;;;;;;;2.69;100.00;152057.00;5050670;28;20469;-76
2021/12/12 03:22:24;;;;;;;7.80;5.20;;;;;;;2.65;100.00;152045.44;5050454;28;20440;-75
2021/12/12 03:25:00;;;;;;;5.60;4.43;;;;;;;2.63;100.00;152040.25;5072573;28;20800;-76
2021/12/12 03:27:37;;;;;;;6.40;5.10;;;;;;;2.60;100.00;152032.53;5056667;28;20436;-75
2021/12/12 03:30:13;;;;;;;5.20;4.63;;;;;;;2.58;100.00;152028.72;5083064;28;20862;-76
2021/12/12 03:32:49;;;;;;;5.10;3.87;;;;;;;2.54;100.00;152017.16;5078406;28;20771;-76
2021/12/12 03:35:25;;;;;;;5.00;4.27;;;;;;;2.52;100.00;152011.97;5084052;28;20990;-75
2021/12/12 03:38:00;;;;;;;4.47;4.07;;;;;;;2.48;100.00;152003.00;5062856;28;20461;-76
2021/12/12 03:40:39;;;;;;;4.53;4.00;;;;;;;2.43;100.00;151990.13;5091646;28;20479;-75
2021/12/12 03:43:17;;;;;;;6.27;4.43;;;;;;;2.38;100.00;151977.28;5060569;28;20449;-75
2021/12/12 03:45:52;;;;;;;6.50;4.10;;;;;;;2.32;100.00;151961.84;5069607;28;20451;-76
2021/12/12 03:48:29;;;;;;;6.30;4.07;;;;;;;2.31;100.00;151960.53;5078441;28;21027;-76
2021/12/12 03:51:06;;;;;;;5.00;4.07;;;;;;;2.29;100.00;151955.41;5089726;28;20451;-76
2021/12/12 03:53:41;;;;;;;5.47;4.13;;;;;;;2.28;100.00;151952.81;5087608;28;20555;-76
2021/12/12 03:56:17;;;;;;;4.27;3.60;;;;;;;2.27;100.00;151950.28;5098966;28;20478;-76
2021/12/12 03:58:55;;;;;;;4.43;3.80;;;;;;;2.27;100.00;151948.97;5097569;28;20453;-76
2021/12/12 04:01:33;;;;;;;5.83;4.50;;;;;;;2.24;100.00;151942.56;5040261;28;21050;-76
2021/12/12 04:04:12;;;;;;;6.20;3.90;;;;;;;2.25;100.00;151943.84;5058647;28;20548;-76
2021/12/12 04:06:49;;;;;;;5.60;3.83;;;;;;;2.23;100.00;151939.97;5059576;28;20480;-76
2021/12/12 04:09:25;;;;;;;5.53;4.40;;;;;;;2.22;100.00;151937.44;5063083;28;20439;-75
2021/12/12 04:12:04;;;;;;;6.20;4.13;;;;;;;2.22;100.00;151936.13;5072541;28;20455;-75
2021/12/12 04:14:42;;;;;;;5.60;4.07;;;;;;;2.21;100.00;151933.53;5073246;28;20530;-75
2021/12/12 04:17:22;;;;;;;4.50;3.43;;;;;;;2.19;100.00;151929.72;5045385;28;20446;-75
2021/12/12 04:20:01;;;;;;;4.77;3.87;;;;;;;2.18;100.00;151927.13;5088008;28;20858;-76
2021/12/12 04:22:36;;;;;;;5.30;4.80;;;;;;;2.11;100.00;151909.13;5069858;28;20511;-76
2021/12/12 04:25:12;;;;;;;4.90;4.40;;;;;;;2.07;100.00;151898.81;5054505;28;20927;-76
2021/12/12 04:27:47;;;;;;;6.60;4.70;;;;;;;2.05;100.00;151893.69;5086791;28;20870;-75
2021/12/12 04:30:24;;;;;;;5.93;4.20;;;;;;;2.00;100.00;151880.84;5074049;28;20829;-75
2021/12/12 04:33:00;;;;;;;5.10;4.60;;;;;;;1.96;100.00;151870.53;5105532;28;21035;-75
2021/12/12 04:35:36;;;;;;;6.17;4.37;;;;;;;1.92;100.00;151860.28;5066678;28;20448;-75
2021/12/12 04:38:11;;;;;;;5.77;4.10;;;;;;;1.83;100.00;151837.13;5037574;28;20485;-75
2021/12/12 04:40:47;;;;;;;5.30;4.70;;;;;;;1.79;100.00;151828.16;5074681;28;20476;-75
2021/12/12 04:43:23;;;;;;;6.07;4.97;;;;;;;1.76;100.00;151819.13;5041669;28;20454;-75
2021/12/12 04:46:08;;;;;;;6.77;4.50;;;;;;;1.71;100.00;151807.59;5071216;28;20451;-75
2021/12/12 04:51:43;;;;;;;5.73;4.57;;;;;;;1.64;100.00;151788.31;5086361;28;20436;-75
2021/12/12 04:54:23;;;;;;;5.80;4.50;;;;;;;1.60;100.00;151779.31;5052807;28;20440;-75
2021/12/12 04:57:01;;;;;;;6.90;5.30;;;;;;;1.58;100.00;151772.88;5061036;28;20442;-75
2021/12/12 04:59:42;;;;;;;7.17;5.77;;;;;;;1.53;100.00;151761.34;5056611;28;20470;-75
2021/12/12 05:02:22;;;;;;;6.53;5.13;;;;;;;1.52;100.00;151757.44;5056927;28;20475;-75
2021/12/12 05:05:01;;;;;;;6.23;5.20;;;;;;;1.53;100.00;151761.34;5064847;28;20444;-76
2021/12/12 05:07:43;;;;;;;8.10;5.87;;;;;;;1.48;100.00;151747.19;5052111;28;20450;-75
2021/12/12 05:10:22;;;;;;;6.47;5.40;;;;;;;1.47;100.00;151745.91;5064200;28;20443;-75
2021/12/12 05:13:02;;;;;;;7.87;5.30;;;;;;;1.49;100.00;151749.72;5051217;28;20443;-75
2021/12/12 05:15:41;;;;;;;5.07;4.57;;;;;;;1.52;100.00;151758.75;5086074;28;20931;-75
2021/12/12 05:18:27;;;;;;;6.53;4.70;;;;;;;1.47;100.00;151744.59;5052416;28;20440;-75
2021/12/12 05:21:05;;;;;;;6.43;4.70;;;;;;;1.46;100.00;151742.00;5064586;28;20793;-75
2021/12/12 05:23:46;;;;;;;6.20;4.10;;;;;;;1.44;100.00;151738.19;5056626;28;20434;-75
2021/12/12 05:26:26;;;;;;;6.70;4.53;;;;;;;1.39;100.00;151724.03;5071388;28;20443;-75
2021/12/12 05:29:05;;;;;;;6.30;4.80;;;;;;;1.38;100.00;151721.50;5072013;28;20481;-75
2021/12/12 05:31:47;;;;;;;6.97;5.30;;;;;;;1.43;100.00;151734.34;5036734;28;20468;-75
2021/12/12 05:34:28;;;;;;;7.57;4.77;;;;;;;1.37;100.00;151718.91;5064769;28;20445;-75
2021/12/12 05:37:05;;;;;;;5.80;4.77;;;;;;;1.35;100.00;151713.78;5042427;28;20447;-75
2021/12/12 05:39:41;;;;;;;4.70;3.97;;;;;;;1.34;100.00;151711.19;5051734;28;20462;-75
2021/12/12 05:42:17;;;;;;;6.20;4.30;;;;;;;1.33;100.00;151708.63;5066552;28;20473;-75
2021/12/12 05:44:54;;;;;;;7.47;4.80;;;;;;;1.31;100.00;151704.78;5053230;28;20530;-75
2021/12/12 05:47:30;;;;;;;6.97;4.20;;;;;;;1.32;100.00;151707.38;5052632;28;20919;-75
2021/12/12 05:50:09;;;;;;;7.40;4.30;;;;;;;1.32;100.00;151706.06;5051833;28;20922;-75
2021/12/12 05:52:45;;;;;;;7.37;5.13;;;;;;;1.30;100.00;151700.94;5055714;28;20442;-75
2021/12/12 05:55:23;;;;;;;8.40;5.53;;;;;;;1.28;100.00;151695.78;5101140;28;20462;-75
2021/12/12 05:58:01;;;;;;;6.23;5.00;;;;;;;1.32;100.00;151707.38;5085073;28;21012;-75
2021/12/12 06:00:40;;;;;;;7.37;5.00;;;;;;;1.31;100.00;151703.50;5058375;28;20469;-75
2021/12/12 06:03:31;;;;;;;6.50;4.87;;;;;;;1.28;100.00;151695.78;5083768;28;20965;-75
2021/12/12 06:06:35;;;;;;;7.40;4.43;;;;;;;1.28;100.00;151697.06;5059092;28;20462;-75
2021/12/12 06:09:17;;;;;;;6.40;4.60;;;;;;;1.26;100.00;151690.66;5052936;28;20446;-76
2021/12/12 06:11:56;;;;;;;6.90;4.50;;;;;;;1.24;100.00;151688.06;5101306;27;20545;-75
2021/12/12 06:14:38;;;;;;;6.67;5.00;;;;;;;1.22;100.00;151681.63;5050662;28;20458;-75
2021/12/12 06:25:05;;;;;;;4.50;3.60;;;;;;;1.13;100.00;151659.84;5041603;28;20467;-74
2021/12/12 06:27:49;;;;;;;5.20;4.30;;;;;;;1.11;100.00;151654.66;5053522;28;20448;-75
2021/12/12 06:30:25;;;;;;;5.83;4.67;;;;;;;1.08;100.00;151647.00;5056101;28;20444;-75
2021/12/12 06:33:01;;;;;;;5.30;4.30;;;;;;;1.06;100.00;151641.81;5053500;28;20513;-75
2021/12/12 06:35:36;;;;;;;7.40;4.63;;;;;;;1.04;100.00;151636.69;5066275;28;20513;-74
2021/12/12 06:38:14;;;;;;;5.27;4.60;;;;;;;1.03;100.00;151634.09;5054376;28;20785;-75
2021/12/12 06:40:52;;;;;;;4.77;4.10;;;;;;;1.04;100.00;151635.41;5058514;28;20476;-74
2021/12/12 06:43:28;;;;;;;5.67;4.60;;;;;;;0.99;100.00;151623.84;5093907;28;20423;-74
2021/12/12 06:46:07;;;;;;;7.83;5.37;;;;;;;0.93;100.00;151608.44;5055154;28;20845;-74
2021/12/12 06:48:43;;;;;;;6.13;4.97;;;;;;;0.93;100.00;151607.13;5071866;28;20422;-75
2021/12/12 06:51:19;;;;;;;6.63;4.90;;;;;;;0.89;100.00;151596.88;5084142;28;20440;-74
2021/12/12 06:53:55;;;;;;;6.40;5.07;;;;;;;0.87;100.00;151591.75;5052183;28;20444;-75
2021/12/12 06:56:33;;;;;;;7.90;5.30;;;;;;;0.88;100.00;151594.31;5061981;28;20972;-74
2021/12/12 06:59:08;;;;;;;6.90;5.00;;;;;;;0.86;100.00;151589.19;5053631;28;20529;-74
2021/12/12 07:01:44;;;;;;;8.17;5.60;;;;;;;0.85;100.00;151587.88;5055441;28;20883;-74
2021/12/12 07:04:20;;;;;;;7.80;5.57;;;;;;;0.85;100.00;151587.88;5091676;28;20425;-74
2021/12/12 07:06:58;;;;;;;9.33;5.40;;;;;;;0.89;100.00;151598.19;5058292;28;20517;-74
2021/12/12 07:09:35;;;;;;;6.90;5.13;;;;;;;0.85;100.00;151587.88;5072481;28;21014;-74
2021/12/12 07:12:14;;;;;;;7.60;6.43;;;;;;;0.83;100.00;151581.47;5066136;28;20431;-74
2021/12/12 07:14:52;;;;;;;6.67;5.23;;;;;;;0.80;100.00;151573.75;5074425;28;20433;-74
2021/12/12 07:17:28;;;;;;;7.07;6.00;;;;;;;0.82;100.00;151580.16;5112179;28;20408;-74
2021/12/12 07:20:05;;;;;;;7.47;5.90;;;;;;;0.80;100.00;151573.75;5085825;28;20818;-74
2021/12/12 07:22:41;;;;;;;6.20;4.73;;;;;;;0.81;100.00;151576.34;5084878;28;20447;-74
2021/12/12 07:25:18;;;;;;;10.07;5.90;;;;;;;0.83;100.00;151582.75;5085775;28;20572;-74
2021/12/12 07:27:54;;;;;;;8.17;5.27;;;;;;;0.86;100.00;151590.47;5056321;28;20430;-74
2021/12/12 07:30:30;;;;;;;10.67;5.73;;;;;;;0.88;100.00;151594.31;5061150;28;20523;-74
2021/12/12 07:33:10;;;;;;;7.87;5.50;;;;;;;0.91;100.00;151603.31;5084024;28;20447;-74
2021/12/12 07:35:46;;;;;;;6.80;4.97;;;;;;;0.94;100.00;151611.03;5077299;28;20437;-74
2021/12/12 07:38:22;;;;;;;6.80;5.67;;;;;;;1.06;100.00;151641.81;5076713;28;20466;-74
2021/12/12 07:40:58;;;;;;;7.10;5.23;;;;;;;1.10;100.00;151652.13;5079591;28;20994;-74
2021/12/12 07:43:35;;;;;;;6.97;4.83;;;;;;;1.09;100.00;151649.53;5087657;28;20542;-74
2021/12/12 07:46:11;;;;;;;6.53;4.80;;;;;;;1.13;100.00;151659.84;5068643;28;20451;-74
2021/12/12 07:48:49;;;;;;;7.90;5.00;;;;;;;1.15;100.00;151664.97;5056914;28;20426;-74
2021/12/12 07:51:25;;;;;;;7.13;5.10;;;;;;;1.22;100.00;151682.94;5086539;28;20506;-74
2021/12/12 07:54:03;;;;;;;6.30;4.43;;;;;;;1.23;100.00;151684.22;5072259;28;20437;-75
2021/12/12 07:56:40;;;;;;;9.17;4.97;;;;;;;1.26;100.00;151690.66;5041970;28;20948;-75
2021/12/12 07:59:19;;;;;;;6.80;4.57;;;;;;;1.32;100.00;151706.06;5057310;28;20445;-74
2021/12/12 08:01:55;;;;;;;5.50;4.13;;;;;;;1.28;100.00;151695.78;5074568;28;20801;-75
2021/12/12 08:04:31;;;;;;;6.63;4.60;;;;;;;1.36;100.00;151717.63;5071477;28;20536;-74
2021/12/12 08:07:10;;;;;;;5.93;4.50;;;;;;;1.42;100.00;151731.75;5065339;28;20437;-74
2021/12/12 08:09:46;;;;;;;6.90;4.97;;;;;;;1.45;100.00;151739.47;5073689;28;20791;-74
2021/12/12 08:12:25;;;;;;;6.53;4.70;;;;;;;1.48;100.00;151747.19;5073815;28;20483;-74
2021/12/12 08:15:10;;;;;;;5.90;4.47;;;;;;;1.57;100.00;151770.28;5073514;28;20452;-74
2021/12/12 08:17:46;;;;;;;7.20;4.43;;;;;;;1.64;100.00;151789.56;5040416;28;21212;-74
2021/12/12 08:20:22;;;;;;;5.53;4.10;;;;;;;1.73;100.00;151811.41;5078970;28;20488;-74
2021/12/12 08:22:59;;;;;;;6.17;4.67;;;;;;;1.80;100.00;151829.44;5073554;28;20440;-74
2021/12/12 08:25:35;;;;;;;5.17;4.30;;;;;;;1.93;100.00;151861.56;5080353;28;20480;-74
2021/12/12 08:28:12;;;;;;;6.00;4.60;;;;;;;2.00;100.00;151880.84;5060175;28;20426;-74
2021/12/12 08:30:51;;;;;;;7.63;5.10;;;;;;;2.03;100.00;151888.56;5055083;28;20789;-74
2021/12/12 08:33:27;;;;;;;4.90;3.87;;;;;;;2.04;100.00;151891.09;5071412;28;20498;-74
2021/12/12 08:36:04;;;;;;;6.50;4.80;;;;;;;2.00;100.00;151880.84;5075705;28;20453;-75
2021/12/12 08:38:39;;;;;;;5.27;4.70;;;;;;;2.05;100.00;151892.41;5076283;28;20441;-75
2021/12/12 08:41:15;;;;;;;6.07;4.43;;;;;;;2.07;100.00;151898.81;5075697;28;20473;-74
2021/12/12 08:43:51;;;;;;;5.30;4.10;;;;;;;2.08;100.00;151901.41;5060532;28;20532;-75
2021/12/12 08:46:28;;;;;;;6.20;4.73;;;;;;;2.08;100.00;151901.41;5053355;28;20442;-75
2021/12/12 08:49:08;;;;;;;6.53;4.20;;;;;;;2.03;100.00;151888.56;5063186;28;20516;-74
2021/12/12 08:51:46;;;;;;;6.10;4.70;;;;;;;2.10;100.00;151906.53;5075037;28;20452;-74
2021/12/12 08:54:27;;;;;;;4.70;4.20;;;;;;;2.08;100.00;151901.41;5056838;28;20458;-74
2021/12/12 08:57:09;;;;;;;5.83;4.00;;;;;;;2.12;100.00;151910.44;5056694;28;20446;-74
2021/12/12 08:59:46;;;;;;;5.57;4.03;;;;;;;2.11;100.00;151907.84;5073696;28;20481;-74
2021/12/12 09:02:23;;;;;;;6.37;4.60;;;;;;;2.10;100.00;151906.53;5055653;28;20467;-75
2021/12/12 09:05:02;;;;;;;5.30;4.27;;;;;;;2.14;100.00;151915.56;5056562;28;20439;-74
2021/12/12 09:07:40;;;;;;;6.10;4.77;;;;;;;2.06;100.00;151895.00;5046081;28;20439;-75
2021/12/12 09:10:21;;;;;;;5.57;4.13;;;;;;;2.13;100.00;151912.97;5074877;28;20446;-74
2021/12/12 09:13:02;;;;;;;6.40;4.00;;;;;;;2.14;100.00;151916.84;5074557;28;20442;-75
2021/12/12 09:15:41;;;;;;;4.57;3.60;;;;;;;2.19;100.00;151928.41;5074674;28;20478;-75
2021/12/12 09:18:20;;;;;;;4.50;3.80;;;;;;;2.21;100.00;151934.84;5074360;28;20462;-74
2021/12/12 09:21:00;;;;;;;3.93;3.20;;;;;;;2.19;100.00;151929.72;5073387;28;20465;-74
2021/12/12 09:23:39;;;;;;;4.30;3.90;;;;;;;2.20;100.00;151932.25;5073471;28;20431;-74
2021/12/12 09:26:19;;;;;;;5.70;4.03;;;;;;;2.28;100.00;151952.81;5078649;28;20506;-74
2021/12/12 09:28:57;;;;;;;4.27;3.20;;;;;;;2.28;100.00;151952.81;5055549;28;20443;-74
2021/12/12 09:31:38;;;;;;;6.00;3.97;;;;;;;2.34;100.00;151966.97;5054229;28;20456;-74
2021/12/12 09:34:20;;;;;;;3.83;3.43;;;;;;;2.34;100.00;151968.25;5064368;28;20438;-75
2021/12/12 09:36:57;;;;;;;4.60;3.40;;;;;;;2.35;100.00;151970.84;5059313;28;20450;-75
2021/12/12 09:39:35;;;;;;;4.67;3.60;;;;;;;2.35;100.00;151970.84;5070921;28;20440;-75
2021/12/12 09:42:24;;;;;;;4.17;3.40;;;;;;;2.39;100.00;151979.81;5051041;28;20887;-74
2021/12/12 09:45:14;;;;;;;6.03;3.40;;;;;;;2.44;100.00;151993.97;5054741;28;20435;-75
2021/12/12 09:51:34;;;;;;;4.43;3.43;;;;;;;2.53;100.00;152014.56;5009324;28;20472;-75
2021/12/12 09:54:26;;;;;;;4.13;3.47;;;;;;;2.52;100.00;152011.97;5089410;28;20429;-74
2021/12/12 09:57:06;;;;;;;3.83;3.10;;;;;;;2.60;100.00;152032.53;5039175;28;20443;-74
2021/12/12 09:59:59;;;;;;;5.10;3.40;;;;;;;2.67;100.00;152050.56;5041765;28;20495;-75
2021/12/12 10:02:54;;;;;;;4.20;3.70;;;;;;;2.78;100.00;152078.88;5065183;28;20457;-75
2021/12/12 10:05:37;;;;;;;3.60;2.87;;;;;;;2.83;100.00;152093.00;5067392;28;20952;-75
2021/12/12 10:08:25;;;;;;;4.67;3.27;;;;;;;2.84;99.22;152094.28;5086128;28;20838;-74
2021/12/12 10:11:04;;;;;;;4.87;3.40;;;;;;;2.81;100.00;152086.56;5052433;28;20477;-75
2021/12/12 10:13:42;;;;;;;3.50;2.83;;;;;;;2.86;99.27;152099.47;5095138;28;20434;-75
2021/12/12 10:16:21;;;;;;;4.20;2.80;;;;;;;2.87;96.49;152102.00;5059762;28;20857;-75
2021/12/12 10:19:01;;;;;;;3.10;2.77;;;;;;;2.88;98.59;152104.59;5066217;28;20545;-74
2021/12/12 10:21:42;;;;;;;3.53;2.73;;;;;;;2.92;97.80;152114.88;5072536;28;21231;-75
2021/12/12 10:24:25;;;;;;;3.30;3.00;;;;;;;3.02;98.27;152141.91;5088214;28;20479;-75
2021/12/12 10:27:07;;;;;;;3.23;2.23;;;;;;;3.10;97.14;152161.19;5068495;28;20435;-74
2021/12/12 10:29:50;;;;;;;3.17;2.50;;;;;;;3.12;98.17;152166.38;5089924;28;20482;-74
2021/12/12 10:32:29;;;;;;;2.90;2.53;;;;;;;3.19;96.74;152183.06;5107745;27;20443;-74
2021/12/12 10:35:08;;;;;;;3.50;2.37;;;;;;;3.20;96.72;152185.66;5089093;28;20450;-74
2021/12/12 10:37:50;;;;;;;4.87;2.70;;;;;;;3.25;97.35;152199.81;5075529;28;20451;-75
2021/12/12 10:40:30;;;;;;;4.27;3.00;;;;;;;3.30;97.61;152212.69;5072811;28;20471;-75
2021/12/12 10:43:08;;;;;;;3.30;2.73;;;;;;;3.32;96.76;152217.81;5072093;28;20845;-74
2021/12/12 10:45:49;;;;;;;4.93;3.23;;;;;;;3.32;96.91;152217.81;5055238;28;20443;-74
2021/12/12 10:48:31;;;;;;;3.60;2.80;;;;;;;3.37;95.83;152230.69;5055960;28;20518;-74
2021/12/12 10:51:11;;;;;;;3.70;2.87;;;;;;;3.45;95.10;152251.28;5074638;28;20447;-74
2021/12/12 10:53:57;;;;;;;3.23;2.47;;;;;;;3.47;95.18;152256.44;5085506;28;20447;-74
2021/12/12 10:56:40;;;;;;;3.73;2.50;;;;;;;3.46;97.28;152252.59;5075460;28;20458;-75
2021/12/12 10:59:20;;;;;;;2.87;2.30;;;;;;;3.45;96.31;152251.28;5090932;28;20426;-75
2021/12/12 11:01:58;;;;;;;2.80;2.10;;;;;;;3.48;93.89;152259.00;5079345;28;20469;-76
2021/12/12 11:04:39;;;;;;;4.50;2.27;;;;;;;3.58;94.84;152284.75;5073543;28;20448;-76
2021/12/12 11:07:19;;;;;;;3.07;2.30;;;;;;;3.61;95.28;152291.19;5097343;28;20798;-76
2021/12/12 11:09:58;;;;;;;2.33;1.97;;;;;;;3.70;93.79;152314.38;5081583;28;20464;-76
2021/12/12 11:12:42;;;;;;;2.60;2.23;;;;;;;3.72;92.76;152318.22;5047921;28;20444;-76
2021/12/12 11:15:22;;;;;;;3.40;2.20;;;;;;;3.76;93.56;152329.78;5063441;28;20785;-76
2021/12/12 11:18:02;;;;;;;2.23;2.03;;;;;;;3.79;92.48;152337.53;5093884;28;20454;-76
2021/12/12 11:20:40;;;;;;;2.90;2.00;;;;;;;3.84;92.59;152350.41;5077124;28;20451;-73
2021/12/12 11:23:21;;;;;;;2.97;2.07;;;;;;;3.88;93.54;152359.44;5076224;28;20424;-76
2021/12/12 11:26:00;;;;;;;2.37;2.10;;;;;;;3.90;92.39;152364.56;5055260;28;20516;-75
2021/12/12 11:28:39;;;;;;;2.13;1.93;;;;;;;3.97;92.56;152382.63;5095002;28;20427;-76
2021/12/12 11:31:17;;;;;;;2.10;1.77;;;;;;;3.98;91.36;152385.16;5098680;28;20432;-76
2021/12/12 11:33:54;;;;;;;3.70;2.30;;;;;;;3.99;91.84;152387.75;5096243;28;20504;-76
2021/12/12 11:36:34;;;;;;;2.77;2.00;;;;;;;4.05;91.00;152403.22;5058931;28;20440;-76
2021/12/12 11:39:18;;;;;;;3.07;2.03;;;;;;;4.04;91.06;152400.63;5083227;28;20953;-76
2021/12/12 11:41:59;;;;;;;3.73;2.13;;;;;;;4.04;89.96;152400.63;5076513;28;20468;-76
2021/12/12 11:44:40;;;;;;;3.10;1.97;;;;;;;4.09;91.39;152413.50;5071736;28;20452;-76
2021/12/12 11:47:25;;;;;;;2.00;1.67;;;;;;;4.13;92.11;152423.84;5057878;28;20464;-76
2021/12/12 11:50:05;;;;;;;3.23;2.20;;;;;;;4.15;92.01;152428.97;5077247;28;20485;-76
2021/12/12 11:52:48;;;;;;;2.40;1.83;;;;;;;4.16;91.48;152432.81;5076883;28;20427;-76
2021/12/12 11:55:28;;;;;;;2.77;1.70;;;;;;;4.17;90.45;152435.41;5080437;28;20448;-76
2021/12/12 11:58:07;;;;;;;2.23;1.60;;;;;;;4.18;91.88;152436.72;5072860;28;20449;-76
2021/12/12 12:00:49;;;;;;;2.63;2.07;;;;;;;4.18;90.45;152436.72;5057709;28;20456;-76
2021/12/12 12:03:30;;;;;;;2.40;1.70;;;;;;;4.25;86.79;152454.72;5060266;28;20449;-76
2021/12/12 12:06:16;;;;;;;3.30;2.37;;;;;;;4.29;87.12;152466.31;5057317;28;20935;-76
2021/12/12 12:09:04;;;;;;;3.00;2.40;;;;;;;4.30;90.39;152468.91;5076455;28;20472;-76
2021/12/12 12:11:52;;;;;;;3.70;3.30;;;;;;;4.30;90.07;152467.59;5071993;28;20452;-76
2021/12/12 12:14:33;;;;;;;3.90;3.30;;;;;;;4.37;87.25;152484.38;5066840;28;20977;-76
2021/12/12 12:17:14;;;;;;;2.33;2.13;;;;;;;4.37;87.52;152485.63;5076307;28;20445;-76
2021/12/12 12:20:04;;;;;;;3.30;2.60;;;;;;;4.45;88.23;152506.22;5074754;28;20455;-76
2021/12/12 12:22:45;;;;;;;2.83;1.67;;;;;;;4.46;87.87;152507.53;5076440;28;20552;-76
2021/12/12 12:25:25;;;;;;;3.40;2.00;;;;;;;4.43;88.27;152501.09;5081757;28;20485;-76
2021/12/12 12:28:06;;;;;;;2.33;1.50;;;;;;;4.51;88.58;152521.69;5066040;28;20449;-76
2021/12/12 12:31:15;;;;;;;1.80;1.60;;;;;;;4.55;87.61;152530.72;5095329;28;20451;-76
2021/12/12 12:34:39;;;;;;;2.13;1.93;;;;;;;4.56;90.52;152533.28;5073007;28;20786;-76
2021/12/12 12:38:03;;;;;;;2.97;2.03;;;;;;;4.58;87.87;152539.72;5043224;28;20547;-76
2021/12/12 12:41:18;;;;;;;2.37;2.10;;;;;;;4.55;87.01;152532.03;5092351;28;20445;-76
2021/12/12 12:44:44;;;;;;;3.20;2.90;;;;;;;4.63;88.65;152551.34;5077627;28;20462;-76
2021/12/12 12:48:15;;;;;;;2.77;2.50;;;;;;;4.67;87.21;152561.63;5088758;28;20448;-76
2021/12/12 12:51:03;;;;;;;2.53;1.97;;;;;;;4.68;85.93;152564.22;5094205;28;20484;-75